Time;durP1;ratioP1;P1;durP2;ratioP2;P2;SDS_P1;SDS_P2;PMS_P1;PMS_P2;Temp;Humidity;BMP_temperature;BMP_pressure;BME280_temperature;BME280_humidity;BME280_pressure;Samples;Min_cycle;Max_cycle;Signal;HPM_P1;HPM_P2
2023/03/02 00:01:19;;;;;;;21.53;14.70;;;-1.90;99.90;;;;;;4956591;29;20451;-52
2023/03/02 00:03:46;;;;;;;13.60;10.10;;;-2.00;99.90;;;;;;4951407;29;20521;-52
2023/03/02 00:06:13;;;;;;;5.53;4.97;;;-1.90;99.90;;;;;;4955190;28;20487;-52
2023/03/02 00:08:40;;;;;;;4.33;3.40;;;-1.90;99.90;;;;;;4955728;28;20470;-52
2023/03/02 00:11:07;;;;;;;4.13;3.60;;;-1.90;99.90;;;;;;4956411;29;20455;-52
2023/03/02 00:13:38;;;;;;;3.90;3.60;;;-2.00;99.90;;;;;;4954317;28;20474;-52
2023/03/02 00:16:05;;;;;;;4.00;3.53;;;-2.00;99.90;;;;;;4955303;28;20561;-52
2023/03/02 00:18:32;;;;;;;4.03;3.67;;;-2.00;99.90;;;;;;4955784;28;20513;-52
2023/03/02 00:20:58;;;;;;;3.57;3.37;;;-2.00;99.90;;;;;;4953766;28;20526;-52
2023/03/02 00:23:26;;;;;;;4.50;4.10;;;-2.10;99.90;;;;;;4956203;29;20498;-52
2023/03/02 00:25:52;;;;;;;4.30;4.00;;;-2.10;99.90;;;;;;4956494;28;20474;-52
2023/03/02 00:28:19;;;;;;;7.73;6.23;;;-2.10;99.90;;;;;;4954791;28;20491;-53
2023/03/02 00:30:47;;;;;;;16.70;9.47;;;-2.10;99.90;;;;;;4956077;29;20514;-52
2023/03/02 00:33:14;;;;;;;20.93;13.50;;;-2.10;99.90;;;;;;4956033;28;20451;-52
2023/03/02 00:35:41;;;;;;;21.83;13.30;;;-2.10;99.90;;;;;;4954526;28;21112;-53
2023/03/02 00:38:08;;;;;;;18.30;12.33;;;-2.10;99.90;;;;;;4954734;28;20458;-53
2023/03/02 00:40:35;;;;;;;19.67;11.70;;;-2.10;99.90;;;;;;4947702;28;21032;-52
2023/03/02 00:43:01;;;;;;;11.63;8.07;;;-2.10;99.90;;;;;;4956166;28;20451;-52
2023/03/02 00:45:28;;;;;;;10.77;8.00;;;-2.20;99.90;;;;;;4955441;28;20502;-53
2023/03/02 00:47:56;;;;;;;14.63;6.73;;;-2.10;99.90;;;;;;4953784;28;20993;-52
2023/03/02 00:50:22;;;;;;;8.80;6.30;;;-2.20;99.90;;;;;;4954517;28;20455;-52
2023/03/02 00:52:49;;;;;;;7.00;5.97;;;-2.20;99.90;;;;;;4954027;28;20471;-52
2023/03/02 00:55:16;;;;;;;8.17;6.80;;;-2.20;99.90;;;;;;4952260;28;20537;-53
2023/03/02 00:57:42;;;;;;;10.90;7.27;;;-2.10;99.90;;;;;;4954737;28;20463;-52
2023/03/02 01:00:11;;;;;;;7.57;6.70;;;-2.20;99.90;;;;;;4963273;28;20454;-52
2023/03/02 01:02:42;;;;;;;8.97;6.50;;;-2.20;99.90;;;;;;4965684;28;20501;-52
2023/03/02 01:05:10;;;;;;;8.13;6.10;;;-2.20;99.90;;;;;;4945370;28;20510;-52
2023/03/02 01:07:37;;;;;;;40.50;20.77;;;-2.20;99.90;;;;;;4953980;28;20490;-52
2023/03/02 01:10:04;;;;;;;37.73;21.30;;;-2.20;99.90;;;;;;4954199;29;20451;-52
2023/03/02 01:12:32;;;;;;;63.37;33.60;;;-2.20;99.90;;;;;;4948397;28;20495;-52
2023/03/02 01:14:58;;;;;;;34.20;19.60;;;-2.20;99.90;;;;;;4954546;28;20529;-53
2023/03/02 01:17:25;;;;;;;45.63;29.03;;;-2.30;99.90;;;;;;4954468;28;20459;-53
2023/03/02 01:19:52;;;;;;;41.53;24.60;;;-2.30;99.90;;;;;;4955137;28;20501;-52
2023/03/02 01:22:21;;;;;;;34.70;20.53;;;-2.30;99.90;;;;;;4953463;28;20518;-52
2023/03/02 01:24:47;;;;;;;38.80;24.30;;;-2.40;99.90;;;;;;4950060;28;20534;-51
2023/03/02 01:27:14;;;;;;;37.60;24.67;;;-2.30;99.90;;;;;;4957755;28;20490;-53
2023/03/02 01:29:41;;;;;;;30.97;19.30;;;-2.30;99.90;;;;;;4953902;28;20462;-52
2023/03/02 01:32:08;;;;;;;21.87;14.33;;;-2.30;99.90;;;;;;4941265;28;20556;-52
2023/03/02 01:34:34;;;;;;;26.90;13.40;;;-2.30;99.90;;;;;;4952562;28;20918;-52
2023/03/02 01:37:01;;;;;;;13.50;9.27;;;-2.30;99.90;;;;;;4950713;28;20518;-55
2023/03/02 01:39:29;;;;;;;8.30;7.50;;;-2.40;99.90;;;;;;4947505;28;20463;-55
2023/03/02 01:41:55;;;;;;;12.70;8.63;;;-2.40;99.90;;;;;;4951160;28;20467;-56
2023/03/02 01:44:42;;;;;;;8.47;7.57;;;-2.40;99.90;;;;;;4945418;28;20474;-56
2023/03/02 01:47:17;;;;;;;8.87;6.90;;;-2.40;99.90;;;;;;4951771;28;20487;-55
2023/03/02 01:49:48;;;;;;;7.57;5.90;;;-2.40;99.90;;;;;;4951254;28;20533;-55
2023/03/02 01:52:16;;;;;;;7.20;6.50;;;-2.50;99.90;;;;;;4943958;28;21055;-56
2023/03/02 01:54:48;;;;;;;9.03;7.37;;;-2.50;99.90;;;;;;4951790;28;20482;-56
2023/03/02 01:57:20;;;;;;;31.90;21.93;;;-2.50;99.90;;;;;;4951294;28;20465;-56
2023/03/02 01:59:50;;;;;;;38.07;24.73;;;-2.50;99.90;;;;;;4951273;29;20459;-56
2023/03/02 02:02:16;;;;;;;23.83;16.63;;;-2.50;99.90;;;;;;4948525;29;20463;-54
2023/03/02 02:04:47;;;;;;;17.77;14.50;;;-2.50;99.90;;;;;;4949934;29;20779;-54
2023/03/02 02:07:13;;;;;;;16.23;12.50;;;-2.50;99.90;;;;;;4953606;28;20483;-55
2023/03/02 02:09:44;;;;;;;13.70;9.90;;;-2.50;99.90;;;;;;4954185;29;20443;-56
2023/03/02 02:12:17;;;;;;;9.97;7.73;;;-2.50;99.90;;;;;;4949771;28;20495;-55
2023/03/02 02:14:44;;;;;;;9.63;8.37;;;-2.40;99.90;;;;;;4953504;28;20549;-55
2023/03/02 02:17:12;;;;;;;11.20;7.90;;;-2.50;99.90;;;;;;4953944;28;21001;-56
2023/03/02 02:19:49;;;;;;;7.37;6.63;;;-2.50;99.90;;;;;;4945804;29;20962;-55
2023/03/02 02:22:26;;;;;;;9.13;7.77;;;-2.60;99.90;;;;;;4952309;28;20559;-55
2023/03/02 02:24:57;;;;;;;8.60;7.60;;;-2.60;99.90;;;;;;4954233;28;20502;-56
2023/03/02 02:27:32;;;;;;;13.30;10.80;;;-2.50;99.90;;;;;;4947560;28;20902;-56
2023/03/02 02:30:02;;;;;;;15.90;12.60;;;-2.60;99.90;;;;;;4957576;28;20486;-54
2023/03/02 02:32:32;;;;;;;17.87;12.63;;;-2.60;99.90;;;;;;4950806;28;20557;-56
2023/03/02 02:35:02;;;;;;;16.83;12.77;;;-2.60;99.90;;;;;;4953116;28;20514;-57
2023/03/02 02:37:33;;;;;;;11.60;10.00;;;-2.50;99.90;;;;;;4949948;28;20452;-56
2023/03/02 02:40:01;;;;;;;12.10;9.50;;;-2.50;99.90;;;;;;4953098;28;20521;-55
2023/03/02 02:42:33;;;;;;;12.63;9.93;;;-2.60;99.90;;;;;;4955306;28;20478;-56
2023/03/02 02:45:02;;;;;;;12.50;9.03;;;-2.70;99.90;;;;;;4951706;29;20845;-54
2023/03/02 02:47:29;;;;;;;9.77;8.10;;;-2.70;99.90;;;;;;4951845;28;20522;-55
2023/03/02 02:49:56;;;;;;;10.70;8.53;;;-2.70;99.90;;;;;;4953555;28;20506;-56
2023/03/02 02:52:26;;;;;;;12.10;9.77;;;-2.80;99.90;;;;;;4950261;28;20550;-55
2023/03/02 02:54:55;;;;;;;11.03;9.10;;;-2.80;99.90;;;;;;4950998;28;20520;-54
2023/03/02 02:57:25;;;;;;;10.80;9.37;;;-2.80;99.90;;;;;;4945157;28;20945;-55
2023/03/02 02:59:56;;;;;;;9.27;8.20;;;-2.70;99.90;;;;;;4948962;28;20548;-57
2023/03/02 03:02:25;;;;;;;10.33;9.27;;;-2.80;99.90;;;;;;4950481;29;20498;-55
2023/03/02 03:05:01;;;;;;;10.23;8.87;;;-2.70;99.90;;;;;;4949697;28;20527;-55
2023/03/02 03:07:28;;;;;;;10.17;8.57;;;-2.80;99.90;;;;;;4951364;28;20490;-55
2023/03/02 03:09:59;;;;;;;10.67;9.30;;;-2.80;99.90;;;;;;4949319;28;20830;-53
2023/03/02 03:12:27;;;;;;;11.67;8.87;;;-2.70;99.90;;;;;;4950067;28;20507;-56
2023/03/02 03:14:55;;;;;;;10.57;9.07;;;-2.80;99.90;;;;;;4942178;28;20644;-55
2023/03/02 03:17:22;;;;;;;11.83;8.57;;;-2.80;99.90;;;;;;4957478;28;20478;-55
2023/03/02 03:19:49;;;;;;;13.90;9.00;;;-2.80;99.90;;;;;;4955971;28;20463;-57
2023/03/02 03:22:17;;;;;;;8.50;7.73;;;-2.90;99.90;;;;;;4953750;28;20491;-55
2023/03/02 03:24:45;;;;;;;9.27;7.87;;;-2.90;99.90;;;;;;4955640;28;21031;-54
2023/03/02 03:27:14;;;;;;;10.93;8.80;;;-2.90;99.90;;;;;;4955384;28;20552;-54
2023/03/02 03:29:44;;;;;;;9.27;8.27;;;-2.90;99.90;;;;;;4951659;28;20475;-53
2023/03/02 03:32:12;;;;;;;9.57;8.63;;;-2.90;99.90;;;;;;4954537;28;20980;-54
2023/03/02 03:34:39;;;;;;;14.47;10.00;;;-2.90;99.90;;;;;;4955288;28;20975;-55
2023/03/02 03:37:06;;;;;;;10.37;8.07;;;-2.90;99.90;;;;;;4950083;28;20463;-55
2023/03/02 03:39:33;;;;;;;9.30;7.83;;;-3.00;99.90;;;;;;4956114;28;20552;-57
2023/03/02 03:42:00;;;;;;;9.50;8.30;;;-3.00;99.90;;;;;;4956352;28;20494;-57
2023/03/02 03:44:27;;;;;;;9.53;7.60;;;-3.00;99.90;;;;;;4955680;28;20466;-56
2023/03/02 03:46:54;;;;;;;8.93;7.17;;;-3.00;99.90;;;;;;4950485;28;20819;-55
2023/03/02 03:49:22;;;;;;;8.87;7.23;;;-3.00;99.90;;;;;;4945841;28;21003;-56
2023/03/02 03:51:48;;;;;;;7.90;7.10;;;-3.00;99.90;;;;;;4953175;28;20553;-56
2023/03/02 03:54:15;;;;;;;9.23;6.90;;;-3.00;99.90;;;;;;4955798;28;20536;-55
2023/03/02 03:56:44;;;;;;;7.93;7.13;;;-3.10;99.90;;;;;;4958670;28;20489;-56
2023/03/02 03:59:14;;;;;;;12.07;7.17;;;-3.20;99.90;;;;;;4947465;28;20947;-55
2023/03/02 04:01:43;;;;;;;10.40;7.37;;;-3.20;99.90;;;;;;4955853;29;20490;-54
2023/03/02 04:04:13;;;;;;;7.90;7.10;;;-3.20;99.90;;;;;;4953455;28;20491;-57
2023/03/02 04:06:41;;;;;;;10.17;7.00;;;-3.20;99.90;;;;;;4953435;28;21031;-55
2023/03/02 04:09:08;;;;;;;9.57;7.70;;;-3.30;99.90;;;;;;4956129;28;20529;-56
2023/03/02 04:11:37;;;;;;;6.90;6.27;;;-3.20;99.90;;;;;;4956145;28;20474;-56
2023/03/02 04:14:05;;;;;;;7.90;7.10;;;-3.20;99.90;;;;;;4953459;28;20521;-55
2023/03/02 04:16:32;;;;;;;7.70;6.97;;;-3.20;99.90;;;;;;4943968;28;21039;-54
2023/03/02 04:18:59;;;;;;;10.60;7.80;;;-3.20;99.90;;;;;;4952016;28;20537;-56
2023/03/02 04:21:26;;;;;;;8.80;7.80;;;-3.20;99.90;;;;;;4953885;28;20498;-54
2023/03/02 04:23:54;;;;;;;8.67;7.70;;;-3.20;99.90;;;;;;4954865;28;20506;-56
2023/03/02 04:26:21;;;;;;;8.93;7.80;;;-3.20;99.90;;;;;;4951361;28;20931;-54
2023/03/02 04:28:49;;;;;;;11.57;8.23;;;-3.10;99.90;;;;;;4954818;28;20486;-55
2023/03/02 04:31:16;;;;;;;12.80;8.37;;;-3.10;99.90;;;;;;4951897;28;20493;-56
2023/03/02 04:33:42;;;;;;;7.70;6.90;;;-3.00;99.90;;;;;;4948466;28;20502;-54
2023/03/02 04:36:09;;;;;;;7.70;7.00;;;-3.00;99.90;;;;;;4946129;28;20491;-55
2023/03/02 04:38:36;;;;;;;11.60;8.90;;;-2.90;99.90;;;;;;4954989;28;20443;-54
2023/03/02 04:41:04;;;;;;;9.87;7.80;;;-2.80;99.90;;;;;;4954113;28;20494;-54
2023/03/02 04:43:32;;;;;;;9.43;8.00;;;-2.70;99.90;;;;;;4954229;28;20896;-54
2023/03/02 04:45:58;;;;;;;11.87;9.53;;;-2.80;99.90;;;;;;4952198;28;20486;-56
2023/03/02 04:48:25;;;;;;;10.47;9.20;;;-2.80;99.90;;;;;;4952407;28;20656;-56
2023/03/02 04:50:52;;;;;;;10.10;9.10;;;-2.70;99.90;;;;;;4948300;28;20972;-54
2023/03/02 04:53:18;;;;;;;11.97;8.57;;;-2.70;99.90;;;;;;4948725;28;20496;-55
2023/03/02 04:55:46;;;;;;;12.17;9.77;;;-2.70;99.90;;;;;;4950296;28;20627;-55
2023/03/02 04:58:14;;;;;;;13.23;9.90;;;-2.50;99.90;;;;;;4950820;28;20466;-55
2023/03/02 05:00:41;;;;;;;13.67;9.93;;;-2.50;99.90;;;;;;4950261;28;20514;-55
2023/03/02 05:03:07;;;;;;;10.90;9.43;;;-2.50;99.90;;;;;;4951695;28;20494;-55
2023/03/02 05:05:34;;;;;;;12.60;10.70;;;-2.50;99.90;;;;;;4948696;28;20934;-55
2023/03/02 05:08:00;;;;;;;16.60;11.53;;;-2.40;99.90;;;;;;4948476;28;20522;-55
2023/03/02 05:10:28;;;;;;;17.17;12.53;;;-2.40;99.90;;;;;;4949611;28;20471;-55
2023/03/02 05:12:57;;;;;;;15.90;13.70;;;-2.40;99.90;;;;;;4948393;28;20471;-57
2023/03/02 05:15:27;;;;;;;17.57;14.07;;;-2.30;99.90;;;;;;4942514;28;20498;-56
2023/03/02 05:17:54;;;;;;;19.57;15.13;;;-2.20;99.90;;;;;;4947649;28;20520;-57
2023/03/02 05:20:26;;;;;;;18.93;13.93;;;-2.20;99.90;;;;;;4949952;28;20498;-56
2023/03/02 05:22:53;;;;;;;20.53;13.50;;;-2.20;99.90;;;;;;4944063;28;20462;-54
2023/03/02 05:25:19;;;;;;;17.20;15.10;;;-2.10;99.90;;;;;;4953609;29;21099;-56
2023/03/02 05:27:46;;;;;;;17.00;14.60;;;-2.10;99.90;;;;;;4949687;28;20496;-57
2023/03/02 05:30:13;;;;;;;17.37;14.73;;;-2.10;99.90;;;;;;4946141;28;20557;-56
2023/03/02 05:32:41;;;;;;;17.00;14.87;;;-2.10;99.90;;;;;;4943134;28;20583;-56
2023/03/02 05:35:08;;;;;;;18.30;14.33;;;-2.10;99.90;;;;;;4951848;28;20507;-55
2023/03/02 05:37:35;;;;;;;16.47;14.57;;;-2.10;99.90;;;;;;4945856;28;20936;-54
2023/03/02 05:40:02;;;;;;;16.57;14.70;;;-2.10;99.90;;;;;;4944638;28;20464;-54
2023/03/02 05:42:28;;;;;;;16.50;14.53;;;-2.10;99.90;;;;;;4951651;28;20463;-55
2023/03/02 05:44:55;;;;;;;17.27;15.23;;;-2.10;99.90;;;;;;4948751;28;20529;-54
2023/03/02 05:47:21;;;;;;;16.60;14.33;;;-2.10;99.90;;;;;;4950019;28;20494;-57
2023/03/02 05:49:49;;;;;;;22.87;18.23;;;-2.00;99.90;;;;;;4957967;28;20541;-55
2023/03/02 05:52:16;;;;;;;20.17;16.07;;;-2.00;99.90;;;;;;4952259;28;20533;-54
2023/03/02 05:54:42;;;;;;;16.57;14.63;;;-2.00;99.90;;;;;;4949935;28;20949;-56
2023/03/02 05:57:09;;;;;;;16.57;14.70;;;-2.00;99.90;;;;;;4948595;28;20985;-55
2023/03/02 05:59:35;;;;;;;19.40;14.93;;;-1.90;99.90;;;;;;4950342;28;20973;-55
2023/03/02 06:02:03;;;;;;;17.80;15.37;;;-1.90;99.90;;;;;;4944198;28;20510;-53
2023/03/02 06:04:30;;;;;;;18.77;16.00;;;-1.90;99.90;;;;;;4952625;28;20467;-54
2023/03/02 06:06:57;;;;;;;20.00;16.70;;;-1.90;99.90;;;;;;4949601;28;20471;-54
2023/03/02 06:09:24;;;;;;;17.87;15.77;;;-1.90;99.90;;;;;;4951758;28;20487;-55
2023/03/02 06:11:51;;;;;;;19.97;16.47;;;-1.90;99.90;;;;;;4951052;28;20463;-55
2023/03/02 06:14:17;;;;;;;23.93;19.47;;;-1.90;99.90;;;;;;4951445;28;20526;-55
2023/03/02 06:16:44;;;;;;;20.23;16.13;;;-1.80;99.90;;;;;;4951453;28;20506;-53
2023/03/02 06:19:10;;;;;;;31.70;22.63;;;-1.80;99.90;;;;;;4954182;28;20506;-56
2023/03/02 06:21:37;;;;;;;29.10;22.57;;;-1.80;99.90;;;;;;4948503;28;20494;-55
2023/03/02 06:24:05;;;;;;;23.40;20.17;;;-1.80;99.90;;;;;;4955220;28;20483;-55
2023/03/02 06:26:32;;;;;;;22.87;20.10;;;-1.70;99.90;;;;;;4954049;28;20521;-55
2023/03/02 06:28:58;;;;;;;19.60;17.10;;;-1.70;99.90;;;;;;4949404;28;20514;-55
2023/03/02 06:31:25;;;;;;;17.13;14.60;;;-1.60;99.90;;;;;;4950917;28;20482;-55
2023/03/02 06:33:51;;;;;;;16.33;14.60;;;-1.70;99.90;;;;;;4952349;28;20495;-57
2023/03/02 06:36:18;;;;;;;15.47;13.87;;;-1.70;99.90;;;;;;4951443;28;20483;-57
2023/03/02 06:38:45;;;;;;;15.83;13.43;;;-1.60;99.90;;;;;;4954960;28;20523;-56
2023/03/02 06:41:13;;;;;;;17.13;14.53;;;-1.50;99.90;;;;;;4952054;28;20471;-56
2023/03/02 06:43:39;;;;;;;17.50;15.00;;;-1.50;99.90;;;;;;4946903;28;20518;-55
2023/03/02 06:46:06;;;;;;;21.03;15.43;;;-1.60;99.90;;;;;;4952120;28;20573;-56
2023/03/02 06:48:32;;;;;;;21.57;15.80;;;-1.40;99.90;;;;;;4950471;28;21016;-56
2023/03/02 06:50:59;;;;;;;18.67;14.00;;;-1.50;99.90;;;;;;4950985;28;20574;-56
2023/03/02 06:53:26;;;;;;;16.93;15.00;;;-1.50;99.90;;;;;;4947619;28;22274;-55
2023/03/02 06:55:52;;;;;;;18.70;14.10;;;-1.50;1.40;;;;;;4950818;29;20566;-57
2023/03/02 06:58:20;;;;;;;18.00;15.60;;;-1.50;99.90;;;;;;4950459;28;20502;-58
2023/03/02 07:00:47;;;;;;;15.67;14.13;;;-1.40;99.90;;;;;;4949819;28;20494;-58
2023/03/02 07:03:13;;;;;;;18.50;15.17;;;-1.50;99.90;;;;;;4957371;28;20549;-56
2023/03/02 07:05:40;;;;;;;18.40;14.93;;;-1.40;99.90;;;;;;4951858;28;20494;-55
2023/03/02 07:08:07;;;;;;;18.77;15.47;;;-1.30;99.90;;;;;;4948475;28;20542;-56
2023/03/02 07:10:33;;;;;;;18.83;16.60;;;-1.30;99.90;;;;;;4952387;28;20478;-55
2023/03/02 07:13:00;;;;;;;17.20;15.40;;;-1.30;99.90;;;;;;4949539;28;20467;-55
2023/03/02 07:15:28;;;;;;;18.70;15.20;;;-1.30;99.90;;;;;;4948370;28;20487;-55
2023/03/02 07:17:54;;;;;;;17.80;14.60;;;-1.20;99.90;;;;;;4950435;29;20499;-58
2023/03/02 07:20:21;;;;;;;16.57;14.37;;;-1.20;99.90;;;;;;4953087;29;20510;-54
2023/03/02 07:22:48;;;;;;;17.10;13.97;;;-1.10;99.90;;;;;;4951562;28;20466;-55
2023/03/02 07:25:14;;;;;;;22.90;15.50;;;-1.10;99.90;;;;;;4965186;28;20486;-54
2023/03/02 07:27:41;;;;;;;16.57;14.60;;;-1.20;99.90;;;;;;4943666;28;20495;-55
2023/03/02 07:30:09;;;;;;;16.37;14.40;;;-1.10;99.90;;;;;;4949966;28;21092;-56
2023/03/02 07:32:37;;;;;;;28.23;16.07;;;-1.10;99.90;;;;;;4952887;28;20550;-56
2023/03/02 07:35:04;;;;;;;19.17;15.30;;;-1.10;99.90;;;;;;4951666;28;21244;-57
2023/03/02 07:37:31;;;;;;;21.07;16.23;;;-1.10;99.90;;;;;;4961455;23;20495;-51
2023/03/02 07:39:58;;;;;;;19.83;16.03;;;-1.10;99.90;;;;;;4951474;28;20482;-56
2023/03/02 07:42:24;;;;;;;18.77;15.37;;;-1.00;99.90;;;;;;4949670;29;20487;-56
2023/03/02 07:44:52;;;;;;;25.80;18.13;;;-1.00;99.90;;;;;;4949885;29;20490;-57
2023/03/02 07:47:19;;;;;;;23.23;18.10;;;-1.00;99.90;;;;;;4948809;29;20486;-57
2023/03/02 07:49:47;;;;;;;28.83;23.63;;;-1.00;99.90;;;;;;4949398;28;20565;-56
2023/03/02 07:52:13;;;;;;;26.10;20.30;;;-1.20;99.90;;;;;;4974311;28;20490;-55
2023/03/02 07:54:40;;;;;;;27.27;21.90;;;-1.10;99.90;;;;;;4967771;28;20463;-56
2023/03/02 07:57:06;;;;;;;34.00;26.70;;;-1.00;99.90;;;;;;4951253;28;20510;-56
2023/03/02 07:59:33;;;;;;;24.37;19.80;;;-0.90;99.90;;;;;;4950486;29;20553;-55
2023/03/02 08:02:01;;;;;;;25.90;19.37;;;-0.80;99.90;;;;;;4952630;28;20469;-55
2023/03/02 08:04:27;;;;;;;28.50;21.57;;;-0.80;99.90;;;;;;4955224;28;20490;-56
2023/03/02 08:06:55;;;;;;;31.30;20.50;;;-1.00;99.90;;;;;;4955200;28;20923;-56
2023/03/02 08:09:22;;;;;;;31.47;22.30;;;-0.90;99.90;;;;;;4952354;28;22508;-56
2023/03/02 08:11:48;;;;;;;29.10;21.00;;;-0.80;99.90;;;;;;4952889;29;20502;-55
2023/03/02 08:14:15;;;;;;;28.90;20.63;;;-0.70;99.90;;;;;;4951394;28;20989;-56
2023/03/02 08:16:41;;;;;;;38.97;21.00;;;-0.70;99.90;;;;;;4950154;28;21007;-57
2023/03/02 08:19:08;;;;;;;31.27;22.43;;;-0.70;99.90;;;;;;4952696;28;20463;-57
2023/03/02 08:21:35;;;;;;;28.83;21.50;;;-0.70;99.90;;;;;;4954520;28;20816;-57
2023/03/02 08:24:04;;;;;;;29.57;22.50;;;-0.70;99.90;;;;;;4953731;28;20501;-56
2023/03/02 08:26:30;;;;;;;36.20;25.80;;;-0.60;99.90;;;;;;4950649;28;20470;-56
2023/03/02 08:28:58;;;;;;;52.57;33.60;;;-0.50;99.90;;;;;;4952621;28;20510;-56
2023/03/02 08:31:24;;;;;;;40.37;29.33;;;-0.50;99.90;;;;;;4956553;28;20447;-55
2023/03/02 08:33:51;;;;;;;41.27;27.57;;;-0.60;99.90;;;;;;4952032;28;20568;-56
2023/03/02 08:36:19;;;;;;;36.30;26.27;;;-0.70;99.90;;;;;;4951371;28;20502;-56
2023/03/02 08:38:46;;;;;;;37.13;27.87;;;-0.60;99.90;;;;;;4953387;28;20542;-56
2023/03/02 08:41:16;;;;;;;39.73;26.70;;;-0.60;99.90;;;;;;4955193;28;20973;-56
2023/03/02 08:43:43;;;;;;;33.70;25.03;;;-0.50;99.90;;;;;;4953618;28;20458;-57
2023/03/02 08:46:11;;;;;;;26.30;21.30;;;-0.50;99.90;;;;;;4953157;28;20800;-56
2023/03/02 08:48:38;;;;;;;23.83;17.90;;;-0.40;99.90;;;;;;4952029;28;20509;-56
2023/03/02 08:51:07;;;;;;;23.47;19.20;;;-0.40;99.90;;;;;;4952241;28;20514;-55
2023/03/02 08:53:36;;;;;;;26.50;20.40;;;-0.30;99.90;;;;;;4953197;28;20595;-57
2023/03/02 08:56:06;;;;;;;22.40;18.20;;;-0.10;99.90;;;;;;4953163;28;20502;-56
2023/03/02 08:58:34;;;;;;;24.07;19.00;;;0.00;99.90;;;;;;4951630;28;20514;-55
2023/03/02 09:01:00;;;;;;;23.70;18.33;;;0.10;99.90;;;;;;4953856;28;20981;-57
2023/03/02 09:03:27;;;;;;;18.83;16.53;;;0.10;99.90;;;;;;4951883;28;20463;-57
2023/03/02 09:05:53;;;;;;;19.80;14.30;;;-0.20;99.90;;;;;;4947937;28;20469;-56
2023/03/02 09:08:20;;;;;;;19.87;16.33;;;-0.10;99.90;;;;;;4953673;29;20545;-56
2023/03/02 09:10:46;;;;;;;22.07;16.70;;;0.10;99.90;;;;;;4954412;28;20546;-55
2023/03/02 09:13:13;;;;;;;17.37;15.17;;;0.20;99.90;;;;;;4951819;28;21024;-55
2023/03/02 09:15:41;;;;;;;21.70;17.20;;;0.30;99.90;;;;;;4950254;29;21079;-57
2023/03/02 09:18:07;;;;;;;20.53;16.60;;;0.20;99.90;;;;;;4952247;28;21071;-56
2023/03/02 09:20:34;;;;;;;18.43;16.20;;;0.10;99.90;;;;;;4953541;28;20992;-56
2023/03/02 09:23:01;;;;;;;18.37;15.43;;;0.20;99.90;;;;;;4952002;28;20546;-56
2023/03/02 09:25:27;;;;;;;17.87;14.63;;;0.20;99.90;;;;;;4947867;28;20561;-56
2023/03/02 09:27:54;;;;;;;16.47;14.77;;;0.20;99.90;;;;;;4945064;28;21004;-55
2023/03/02 09:30:21;;;;;;;18.13;14.60;;;0.30;99.90;;;;;;4950170;28;20585;-57
2023/03/02 09:32:49;;;;;;;22.60;18.73;;;0.30;99.90;;;;;;4950140;28;20462;-55
2023/03/02 09:35:15;;;;;;;18.60;15.60;;;0.30;99.90;;;;;;4949190;28;20462;-56
2023/03/02 09:37:42;;;;;;;16.77;15.00;;;0.30;99.90;;;;;;4950101;28;20545;-56
2023/03/02 09:40:18;;;;;;;18.20;15.30;;;0.30;99.90;;;;;;4951863;28;20514;-56
2023/03/02 09:43:01;;;;;;;15.50;13.83;;;0.40;99.90;;;;;;4948985;28;20541;-56
2023/03/02 09:45:47;;;;;;;16.03;14.30;;;0.60;99.90;;;;;;4949078;29;20473;-56
2023/03/02 09:48:27;;;;;;;15.83;13.40;;;0.70;99.90;;;;;;4944354;28;20965;-56
2023/03/02 09:51:07;;;;;;;14.73;13.30;;;0.50;99.90;;;;;;4949753;29;20528;-55
2023/03/02 09:53:46;;;;;;;14.60;13.10;;;0.70;99.90;;;;;;4950081;29;20521;-56
2023/03/02 09:56:15;;;;;;;16.80;13.90;;;0.70;99.90;;;;;;4950401;29;20505;-56
2023/03/02 09:58:48;;;;;;;13.37;11.97;;;0.80;99.90;;;;;;4947913;29;20521;-56
2023/03/02 10:01:21;;;;;;;15.90;14.20;;;0.70;99.90;;;;;;4948002;29;20497;-56
2023/03/02 10:03:55;;;;;;;29.57;24.10;;;0.60;99.90;;;;;;4947662;28;20499;-56
2023/03/02 10:06:21;;;;;;;24.57;21.93;;;0.50;99.90;;;;;;4953451;28;20846;-55
2023/03/02 10:08:49;;;;;;;25.00;22.40;;;0.60;99.90;;;;;;4951241;28;20475;-55
2023/03/02 10:11:21;;;;;;;15.57;13.87;;;0.70;99.90;;;;;;4949773;28;21086;-55
2023/03/02 10:13:53;;;;;;;13.53;12.13;;;0.80;99.90;;;;;;4947787;28;20587;-56
2023/03/02 10:16:30;;;;;;;12.97;11.67;;;1.00;99.90;;;;;;4944406;29;20503;-56
2023/03/02 10:19:06;;;;;;;13.50;12.10;;;1.10;99.90;;;;;;4952157;29;20941;-55
2023/03/02 10:21:38;;;;;;;14.93;13.43;;;1.10;99.90;;;;;;4950223;28;20517;-56
2023/03/02 10:24:16;;;;;;;13.10;11.80;;;1.00;94.40;;;;;;4951909;28;20533;-56
2023/03/02 10:26:45;;;;;;;13.13;11.87;;;1.00;99.90;;;;;;4950440;28;20488;-55
2023/03/02 10:29:26;;;;;;;13.83;12.00;;;0.90;99.90;;;;;;4951922;28;20459;-55
2023/03/02 10:31:59;;;;;;;12.67;11.37;;;0.90;99.90;;;;;;4949542;28;20502;-56
2023/03/02 10:34:29;;;;;;;16.20;12.60;;;1.10;99.90;;;;;;4949621;28;20498;-56
2023/03/02 10:36:57;;;;;;;23.93;16.97;;;1.10;99.90;;;;;;4950283;28;20490;-55
2023/03/02 10:39:23;;;;;;;16.50;13.77;;;1.20;99.90;;;;;;4951714;28;20466;-55
2023/03/02 10:41:54;;;;;;;13.43;12.03;;;1.30;99.90;;;;;;4950164;28;20553;-57
2023/03/02 10:44:24;;;;;;;13.80;12.30;;;1.40;99.90;;;;;;4948009;28;21051;-57
2023/03/02 10:46:52;;;;;;;12.90;11.60;;;1.20;99.90;;;;;;4949554;28;20518;-57
2023/03/02 10:49:25;;;;;;;12.07;10.87;;;1.20;99.90;;;;;;4950632;28;20467;-56
2023/03/02 10:51:58;;;;;;;11.17;9.90;;;1.20;99.90;;;;;;4949624;28;20511;-56
2023/03/02 10:54:27;;;;;;;12.67;11.37;;;1.30;99.90;;;;;;4947595;28;20541;-56
2023/03/02 10:56:56;;;;;;;11.47;10.37;;;1.30;99.90;;;;;;4949969;28;20529;-56
2023/03/02 10:59:39;;;;;;;16.83;10.80;;;1.30;99.90;;;;;;4944161;28;20486;-56
2023/03/02 11:02:17;;;;;;;11.33;10.23;;;1.00;99.90;;;;;;4949455;28;21043;-57
2023/03/02 11:04:44;;;;;;;11.83;10.73;;;1.10;99.90;;;;;;4946747;28;20519;-56
2023/03/02 11:07:16;;;;;;;13.30;11.90;;;1.30;99.90;;;;;;4947383;28;20518;-55
2023/03/02 11:09:43;;;;;;;11.53;10.30;;;1.40;99.90;;;;;;4949914;28;20483;-55
2023/03/02 11:12:15;;;;;;;12.50;11.30;;;1.40;99.90;;;;;;4932716;28;20989;-56
2023/03/02 11:14:42;;;;;;;14.50;13.00;;;1.20;20.00;;;;;;4950212;28;20459;-57
2023/03/02 11:17:30;;;;;;;15.87;14.27;;;1.30;99.90;;;;;;4943962;28;20643;-55
2023/03/02 11:19:56;;;;;;;13.37;12.07;;;1.30;99.90;;;;;;4949455;29;20498;-56
2023/03/02 11:22:32;;;;;;;13.30;11.90;;;1.60;99.90;;;;;;4945971;28;20500;-56
2023/03/02 11:25:04;;;;;;;12.83;11.47;;;1.60;25.70;;;;;;4950083;29;20936;-56
2023/03/02 11:27:35;;;;;;;12.00;10.80;;;1.40;99.90;;;;;;4950650;28;20483;-56
2023/03/02 11:30:06;;;;;;;12.43;11.13;;;1.50;99.90;;;;;;4951043;28;20514;-55
2023/03/02 11:32:41;;;;;;;13.33;11.40;;;1.40;99.90;;;;;;4949475;28;20509;-53
2023/03/02 11:35:13;;;;;;;11.67;10.60;;;1.50;99.90;;;;;;4948901;28;20521;-52
2023/03/02 11:37:47;;;;;;;12.43;11.13;;;1.80;99.90;;;;;;4952133;28;21157;-52
2023/03/02 11:40:21;;;;;;;12.30;10.87;;;2.00;99.90;;;;;;4947762;28;20494;-53
2023/03/02 11:42:48;;;;;;;15.30;11.87;;;1.70;29.60;;;;;;4953548;28;20465;-52
2023/03/02 11:45:20;;;;;;;12.50;11.00;;;1.90;94.70;;;;;;4954671;28;20499;-54
2023/03/02 11:47:52;;;;;;;11.87;10.77;;;2.00;98.00;;;;;;4954982;28;20565;-53
2023/03/02 11:50:19;;;;;;;14.60;13.10;;;1.90;31.90;;;;;;4952614;28;20519;-53
2023/03/02 11:52:52;;;;;;;13.80;12.23;;;1.90;25.50;;;;;;4953879;28;20839;-52
2023/03/02 11:55:22;;;;;;;13.30;11.90;;;2.00;99.90;;;;;;4954260;28;20467;-52
2023/03/02 11:57:52;;;;;;;13.30;11.90;;;2.20;24.10;;;;;;4952778;28;20488;-53
2023/03/02 12:00:29;;;;;;;12.87;11.57;;;2.40;20.60;;;;;;4954031;28;20510;-53
2023/03/02 12:03:01;;;;;;;16.83;13.57;;;2.20;33.70;;;;;;4954685;28;20458;-53
2023/03/02 12:05:30;;;;;;;14.27;12.70;;;2.10;26.10;;;;;;4954385;28;20501;-52
2023/03/02 12:07:59;;;;;;;14.53;13.13;;;2.40;21.40;;;;;;4957406;28;20486;-52
2023/03/02 12:10:32;;;;;;;16.87;14.60;;;2.50;30.10;;;;;;4959155;28;21003;-52
2023/03/02 12:13:06;;;;;;;16.53;14.50;;;2.50;44.50;;;;;;4946008;28;20491;-54
2023/03/02 12:15:39;;;;;;;16.03;14.33;;;2.60;41.90;;;;;;4960356;29;20457;-52
2023/03/02 12:18:27;;;;;;;16.90;15.00;;;2.30;40.10;;;;;;4958067;28;20502;-53
2023/03/02 12:21:02;;;;;;;16.63;14.90;;;2.30;46.90;;;;;;4956329;29;20454;-53
2023/03/02 12:23:32;;;;;;;16.73;15.00;;;1.90;99.90;;;;;;4954459;28;20507;-53
2023/03/02 12:26:05;;;;;;;20.70;17.73;;;2.20;99.90;;;;;;4953751;28;20844;-52
2023/03/02 12:28:35;;;;;;;16.50;14.80;;;2.30;83.30;;;;;;4954387;28;20542;-52
2023/03/02 12:31:06;;;;;;;15.83;14.23;;;2.20;44.10;;;;;;4954315;29;20514;-53
2023/03/02 12:33:41;;;;;;;15.00;13.50;;;2.40;24.40;;;;;;4953478;28;20557;-53
2023/03/02 12:36:14;;;;;;;15.00;13.50;;;2.40;39.70;;;;;;4945537;28;20465;-52
2023/03/02 12:38:46;;;;;;;16.50;14.70;;;2.40;33.40;;;;;;4944580;28;20476;-53
2023/03/02 12:41:31;;;;;;;15.63;14.13;;;2.50;34.90;;;;;;4944173;28;20477;-53
2023/03/02 12:44:13;;;;;;;16.10;14.40;;;2.60;35.30;;;;;;4950765;29;20494;-53